»·PEaware :: N800DW KSEE-KSBD

N800DW :: KSEE-KSBD

FLIGHT INFORMATION

Flight Status: Arrived
Operator: Privately registered:
United States
More flights under this callsign
Pilot: Scott L. (17677)
Aircraft: PIPER PA-30 TWIN COMANCHE
(PA30)
More flights by this aircraft type
Origin: KSEE Gillespie
United States
Destination: KSBD San Bernardino Intl
United States
More flights between these airports :: More routes between these airports
Route: +OCN V23 DANAH V363 POXKU V8 PDZ
File this flight plan on PilotEdge
Remarks:
Altitude:
(Current/Filed)
6,000ft
Speed:
(Current/Filed)
180kts
Departed: 06-Sep-18 05:57 PM
Arrived: 06-Sep-18 06:42 PM
Distance/Time
Traveled:
77nm/0:45
Distance/Time
To Go:
Arrived

Flight Plot

Page will automatically refresh every two minutes.


Map Options




Map Legend


Flown Route
Filed Route
Departure Airport
Arrival Airport
Navaid (VOR, NDB)
Fix

Horizontal Profiles

Position Reports

Time Latitude Longitude Heading Altitude Ground
Speed
06-Sep-18 17:43 32.825796 -116.974839 12 370ft 0kts
06-Sep-18 17:44 32.825796 -116.974839 12 370ft 0kts
06-Sep-18 17:45 32.825796 -116.974839 12 370ft 0kts
06-Sep-18 17:46 32.825796 -116.974839 12 370ft 0kts
06-Sep-18 17:47 32.825796 -116.974839 12 370ft 0kts
06-Sep-18 17:48 32.825796 -116.974839 12 370ft 0kts
06-Sep-18 17:49 32.825796 -116.974839 12 370ft 0kts
06-Sep-18 17:50 32.825796 -116.974839 12 370ft 0kts
06-Sep-18 17:51 32.825796 -116.974839 12 370ft 0kts
06-Sep-18 17:52 32.825796 -116.974839 12 370ft 0kts
06-Sep-18 17:53 32.825796 -116.974839 12 370ft 0kts
06-Sep-18 17:54 32.825796 -116.974839 12 370ft 0kts
06-Sep-18 17:55 32.826314 -116.974145 68 370ft 6kts
06-Sep-18 17:56 32.825656 -116.969829 102 370ft 19kts
06-Sep-18 17:57 32.825887 -116.964399 343 370ft 4kts
06-Sep-18 17:58 32.826003 -116.964451 337 370ft 0kts
06-Sep-18 17:59 32.829220 -116.979550 288 677ft 93kts
06-Sep-18 18:00 32.862223 -116.987475 353 1443ft 134kts
06-Sep-18 18:01 32.899187 -116.988726 353 2487ft 133kts
06-Sep-18 18:02 32.936161 -116.990132 353 3440ft 134kts
06-Sep-18 18:03 32.973325 -116.991801 353 4356ft 135kts
06-Sep-18 18:04 33.011033 -116.993806 353 5238ft 137kts
06-Sep-18 18:05 33.032680 -117.025947 295 6076ft 130kts
06-Sep-18 18:06 33.054392 -117.068995 298 6043ft 163kts
06-Sep-18 18:07 33.078558 -117.114409 299 6040ft 166kts
06-Sep-18 18:08 33.103376 -117.160664 300 6037ft 168kts
06-Sep-18 18:09 33.123440 -117.198045 300 6020ft 170kts
06-Sep-18 18:10 33.148786 -117.245290 300 6016ft 169kts
06-Sep-18 18:11 33.174143 -117.292625 300 6015ft 169kts
06-Sep-18 18:12 33.199216 -117.339498 299 6013ft 170kts
06-Sep-18 18:13 33.224613 -117.387036 299 6011ft 170kts
06-Sep-18 18:14 33.253239 -117.431886 313 6012ft 172kts
06-Sep-18 18:15 33.287058 -117.471404 317 6012ft 163kts
06-Sep-18 18:16 33.318551 -117.507941 317 6031ft 156kts
06-Sep-18 18:17 33.349555 -117.544067 317 6034ft 155kts
06-Sep-18 18:18 33.380207 -117.579850 317 6035ft 156kts
06-Sep-18 18:19 33.411216 -117.616090 317 6035ft 156kts
06-Sep-18 18:20 33.441822 -117.651899 317 6034ft 156kts
06-Sep-18 18:21 33.472463 -117.687791 316 6032ft 156kts
06-Sep-18 18:22 33.513563 -117.703106 350 6032ft 169kts
06-Sep-18 18:23 33.560813 -117.711343 351 6029ft 174kts
06-Sep-18 18:24 33.607870 -117.719279 351 6027ft 174kts
06-Sep-18 18:25 33.655530 -117.727281 351 6023ft 174kts
06-Sep-18 18:26 33.699515 -117.741708 336 6020ft 174kts
06-Sep-18 18:27 33.743315 -117.762364 336 6019ft 174kts
06-Sep-18 18:28 33.787873 -117.780309 356 6018ft 162kts
06-Sep-18 18:29 33.831880 -117.781507 357 6016ft 156kts
06-Sep-18 18:30 33.860707 -117.751352 68 6014ft 164kts
06-Sep-18 18:31 33.874434 -117.699569 68 6008ft 163kts
06-Sep-18 18:32 33.887873 -117.647597 68 6003ft 163kts
06-Sep-18 18:33 33.900753 -117.597688 67 5995ft 163kts
06-Sep-18 18:34 33.914985 -117.542460 69 4939ft 192kts
06-Sep-18 18:35 33.936000 -117.483344 56 3999ft 185kts
06-Sep-18 18:36 33.959774 -117.432335 56 4016ft 171kts
06-Sep-18 18:37 33.978712 -117.388301 60 3996ft 124kts
06-Sep-18 18:38 33.991810 -117.352671 63 3869ft 119kts
06-Sep-18 18:39 34.014607 -117.319440 49 3218ft 136kts
06-Sep-18 18:40 34.042315 -117.291276 48 3061ft 147kts
06-Sep-18 18:41 34.072290 -117.254844 41 1961ft 152kts
06-Sep-18 18:42 34.081457 -117.215710 71 1951ft 104kts
06-Sep-18 18:43 34.100452 -117.215436 277 1419ft 75kts
06-Sep-18 18:44 34.094366 -117.237832 251 1132ft 40kts
06-Sep-18 18:45 34.096435 -117.241236 241 1131ft 0kts
06-Sep-18 18:46 34.096435 -117.241236 241 1131ft 0kts
06-Sep-18 18:47 34.096435 -117.241236 241 1131ft 0kts
06-Sep-18 18:48 34.096435 -117.241236 241 1131ft 0kts

Navigation Log

Ident Type
1. KSEE Airport
2. OCN Navaid
3. KELPS Fix
4. DANAH Fix
5. ELB Navaid
6. JOGIT Fix
7. POXKU Fix
8. EBITE Fix
9. PDZ Navaid
10. KSBD Airport